createdAt,value
2022-08-31T13:17:39.599Z,19.30
2022-08-31T13:20:20.147Z,18.54
2022-08-31T13:23:00.253Z,18.41
2022-08-31T13:25:38.737Z,19.41
2022-08-31T13:28:13.808Z,18.54
2022-08-31T13:30:55.082Z,18.48
2022-08-31T13:33:31.778Z,17.51
2022-08-31T13:36:32.508Z,18.15
2022-08-31T13:39:16.793Z,17.09
2022-08-31T13:42:20.701Z,17.37
2022-08-31T13:45:03.505Z,18.13
2022-08-31T13:47:47.596Z,17.93
2022-08-31T13:50:53.600Z,17.51
2022-08-31T13:53:46.397Z,17.04
2022-08-31T13:56:47.763Z,17.81
2022-08-31T13:59:23.121Z,18.17
2022-08-31T14:02:16.501Z,17.89
2022-08-31T14:04:46.484Z,18.49
2022-08-31T14:07:38.937Z,17.87
2022-08-31T14:10:24.266Z,17.60
2022-08-31T14:13:14.201Z,17.00
2022-08-31T14:15:58.154Z,17.58
2022-08-31T14:18:40.639Z,16.65
2022-08-31T14:21:27.161Z,17.77
2022-08-31T14:24:01.090Z,17.47
2022-08-31T14:26:43.170Z,17.03
2022-08-31T14:29:16.659Z,17.06
2022-08-31T14:31:54.878Z,17.87
2022-08-31T14:34:28.085Z,18.30
2022-08-31T14:37:19.540Z,17.36
2022-08-31T14:40:07.549Z,16.72
2022-08-31T14:42:38.633Z,16.57
2022-08-31T14:45:20.108Z,17.11
2022-08-31T14:47:52.184Z,17.66
2022-08-31T14:50:26.361Z,17.60
2022-08-31T14:52:57.482Z,15.56
2022-08-31T14:55:28.205Z,17.24
2022-08-31T14:58:12.085Z,16.97
2022-08-31T15:00:49.811Z,16.42
2022-08-31T15:03:24.390Z,17.91
2022-08-31T15:05:52.504Z,16.78
2022-08-31T15:08:22.898Z,17.85
2022-08-31T15:10:58.515Z,17.68
2022-08-31T15:13:33.319Z,17.37
2022-08-31T15:16:04.026Z,17.28
2022-08-31T15:18:35.930Z,17.26
2022-08-31T15:21:06.105Z,17.48
2022-08-31T15:23:36.776Z,17.27
2022-08-31T15:26:10.920Z,17.54
2022-08-31T15:28:42.158Z,16.68
2022-08-31T15:31:24.228Z,16.79
2022-08-31T15:33:55.193Z,16.25
2022-08-31T15:36:27.646Z,16.26
2022-08-31T15:39:21.652Z,17.87
2022-08-31T15:41:50.640Z,16.61
2022-08-31T15:44:19.800Z,17.00
2022-08-31T15:47:06.806Z,17.86
2022-08-31T15:49:37.704Z,17.05
2022-08-31T15:52:13.429Z,16.93
2022-08-31T15:54:42.055Z,17.08
2022-08-31T15:57:12.142Z,16.91
2022-08-31T15:59:42.906Z,16.64
2022-08-31T16:02:20.303Z,16.52
2022-08-31T16:04:51.173Z,16.98
2022-08-31T16:07:27.979Z,16.55
2022-08-31T16:10:21.520Z,17.02
2022-08-31T16:12:53.550Z,17.75
2022-08-31T16:15:24.725Z,17.78
2022-08-31T16:17:57.061Z,17.51
2022-08-31T16:20:27.156Z,17.41
2022-08-31T16:22:58.633Z,18.22
2022-08-31T16:25:30.378Z,17.20
2022-08-31T16:28:20.653Z,17.69
2022-08-31T16:30:51.628Z,18.04
2022-08-31T16:33:20.663Z,17.52
2022-08-31T16:35:49.171Z,17.28
2022-08-31T16:38:17.520Z,17.51
2022-08-31T16:40:45.893Z,18.50
2022-08-31T16:43:14.313Z,17.63
2022-08-31T16:45:42.755Z,17.84
2022-08-31T16:48:29.898Z,17.50
2022-08-31T16:51:01.905Z,17.65
2022-08-31T16:53:31.171Z,18.39
2022-08-31T16:56:03.798Z,17.99
2022-08-31T16:58:52.333Z,18.73
2022-08-31T17:01:27.248Z,18.18
2022-08-31T17:04:07.467Z,18.23
2022-08-31T17:06:39.044Z,18.36
2022-08-31T17:09:16.113Z,18.86
2022-08-31T17:11:58.539Z,18.04
2022-08-31T17:14:43.346Z,18.84
2022-08-31T17:17:19.274Z,19.54
2022-08-31T17:19:48.152Z,19.85
2022-08-31T17:22:25.541Z,19.64
2022-08-31T17:24:57.533Z,19.91
2022-08-31T17:27:27.204Z,19.73
2022-08-31T17:29:56.064Z,19.63
2022-08-31T17:32:26.846Z,19.70
2022-08-31T17:34:55.715Z,19.48
2022-08-31T17:37:32.273Z,19.86
2022-08-31T17:40:14.132Z,19.95
2022-08-31T17:42:42.582Z,20.49
2022-08-31T17:45:36.843Z,20.50
2022-08-31T17:48:05.217Z,20.59
2022-08-31T17:50:33.537Z,20.31
2022-08-31T17:53:01.793Z,20.66
2022-08-31T17:55:31.043Z,21.06
2022-08-31T17:57:59.472Z,21.38
2022-08-31T18:00:34.101Z,21.50
2022-08-31T18:03:02.359Z,21.70
2022-08-31T18:05:30.671Z,21.73
2022-08-31T18:08:23.800Z,22.22
2022-08-31T18:10:53.342Z,22.11
2022-08-31T18:13:24.305Z,22.26
2022-08-31T18:15:52.866Z,22.61
2022-08-31T18:18:25.273Z,23.05
2022-08-31T18:20:53.482Z,22.96
2022-08-31T18:23:21.744Z,23.41
2022-08-31T18:25:50.010Z,23.40
2022-08-31T18:28:18.223Z,23.28
2022-08-31T18:31:11.666Z,23.64
2022-08-31T18:33:40.251Z,23.48
2022-08-31T18:36:11.931Z,24.01
2022-08-31T18:38:40.235Z,23.89
2022-08-31T18:41:27.013Z,24.02
2022-08-31T18:44:13.621Z,24.12
2022-08-31T18:46:45.214Z,24.54
2022-08-31T18:49:13.463Z,24.54
2022-08-31T18:51:43.064Z,24.62
2022-08-31T18:54:11.673Z,24.91
2022-08-31T18:56:40.087Z,24.97
2022-08-31T18:59:09.075Z,24.90
2022-08-31T19:01:37.737Z,25.06
2022-08-31T19:04:07.437Z,25.72
2022-08-31T19:06:39.806Z,27.26
2022-08-31T19:09:11.675Z,28.62
2022-08-31T19:11:51.611Z,28.81
2022-08-31T19:14:23.263Z,26.75
2022-08-31T19:16:55.101Z,27.64
2022-08-31T19:19:30.883Z,27.18
2022-08-31T19:21:59.397Z,27.87
2022-08-31T19:24:27.620Z,29.72
2022-08-31T19:26:59.378Z,27.76
2022-08-31T19:29:31.146Z,28.75
2022-08-31T19:32:05.986Z,28.21
2022-08-31T19:34:38.331Z,29.40
2022-08-31T19:37:07.767Z,29.17
2022-08-31T19:39:37.508Z,31.01
2022-08-31T19:42:08.834Z,28.92
2022-08-31T19:44:55.751Z,30.05
2022-08-31T19:47:27.641Z,28.33
2022-08-31T19:49:56.041Z,31.17
2022-08-31T19:52:51.832Z,29.09
2022-08-31T19:55:20.104Z,30.05
2022-08-31T19:57:48.371Z,28.67
2022-08-31T20:00:16.835Z,29.25
2022-08-31T20:02:45.220Z,30.71
2022-08-31T20:05:15.171Z,30.18
2022-08-31T20:07:45.257Z,31.13
2022-08-31T20:10:14.335Z,31.00
2022-08-31T20:12:44.813Z,31.61
2022-08-31T20:15:13.385Z,30.04
2022-08-31T20:17:43.238Z,29.39
2022-08-31T20:20:13.084Z,29.49
2022-08-31T20:22:41.355Z,28.88
2022-08-31T20:25:17.576Z,29.71
2022-08-31T20:27:47.197Z,31.84
2022-08-31T20:30:19.483Z,32.35
2022-08-31T20:32:47.739Z,32.83
2022-08-31T20:35:16.059Z,30.99
2022-08-31T20:37:44.333Z,30.31
2022-08-31T20:40:20.563Z,31.39
2022-08-31T20:42:50.025Z,32.98
2022-08-31T20:45:34.885Z,33.78
2022-08-31T20:48:29.097Z,30.92
2022-08-31T20:50:57.997Z,30.75
2022-08-31T20:53:42.586Z,29.90
2022-08-31T20:56:17.178Z,31.04
2022-08-31T20:58:46.807Z,31.34
2022-08-31T21:01:15.827Z,30.02
2022-08-31T21:03:44.156Z,34.95
2022-08-31T21:06:12.983Z,30.48
2022-08-31T21:08:42.429Z,30.78
2022-08-31T21:11:16.749Z,30.18
2022-08-31T21:13:46.749Z,30.12
2022-08-31T21:16:17.640Z,30.78
2022-08-31T21:18:48.685Z,30.77
2022-08-31T21:21:17.635Z,31.95
2022-08-31T21:23:47.733Z,31.23
2022-08-31T21:26:24.319Z,30.48
2022-08-31T21:29:17.950Z,30.13
2022-08-31T21:31:52.005Z,30.62
2022-08-31T21:34:26.740Z,31.01
2022-08-31T21:36:55.024Z,32.22
2022-08-31T21:39:24.758Z,31.74
2022-08-31T21:41:55.463Z,31.94
2022-08-31T21:44:24.403Z,32.21
2022-08-31T21:46:52.742Z,32.09
2022-08-31T21:49:21.558Z,32.25
2022-08-31T21:51:56.762Z,33.72
2022-08-31T21:54:28.525Z,32.85
2022-08-31T21:57:02.565Z,32.79
2022-08-31T21:59:36.676Z,32.90
2022-08-31T22:02:11.586Z,35.44
2022-08-31T22:04:43.642Z,33.79
2022-08-31T22:07:14.122Z,32.19
2022-08-31T22:09:43.449Z,32.33
2022-08-31T22:12:12.355Z,32.86
2022-08-31T22:14:41.252Z,33.72
2022-08-31T22:17:09.942Z,33.54
2022-08-31T22:20:13.010Z,33.09
2022-08-31T22:22:41.436Z,32.98
2022-08-31T22:25:10.033Z,33.96
2022-08-31T22:27:38.490Z,32.58
2022-08-31T22:30:07.695Z,33.50
2022-08-31T22:32:37.327Z,36.49
2022-08-31T22:35:06.174Z,34.67
2022-08-31T22:37:35.240Z,35.11
2022-08-31T22:40:04.033Z,34.45
2022-08-31T22:42:32.473Z,34.34
2022-08-31T22:45:01.779Z,34.32
2022-08-31T22:47:30.023Z,34.92
2022-08-31T22:49:58.265Z,35.70
2022-08-31T22:52:26.482Z,34.83
2022-08-31T22:54:54.770Z,34.05
2022-08-31T22:57:22.987Z,35.48
2022-08-31T22:59:52.424Z,36.33
2022-08-31T23:02:20.985Z,37.07
2022-08-31T23:04:49.948Z,36.50
2022-08-31T23:07:18.625Z,36.12
2022-08-31T23:09:46.834Z,36.38
2022-08-31T23:12:15.086Z,36.45
2022-08-31T23:14:43.287Z,35.68
2022-08-31T23:17:13.777Z,36.22
2022-08-31T23:19:43.649Z,37.63
2022-08-31T23:22:24.793Z,37.69
2022-08-31T23:24:52.650Z,36.64
2022-08-31T23:27:22.480Z,37.36
2022-08-31T23:29:56.481Z,37.83
2022-08-31T23:32:27.973Z,37.42
2022-08-31T23:34:58.476Z,36.38
2022-08-31T23:37:27.675Z,36.66
2022-08-31T23:39:58.226Z,36.10
2022-08-31T23:42:31.284Z,36.74
2022-08-31T23:45:00.144Z,36.40
2022-08-31T23:47:32.933Z,36.34
2022-08-31T23:50:04.712Z,36.66
2022-08-31T23:52:33.955Z,37.40
2022-08-31T23:55:03.030Z,36.88
2022-08-31T23:57:33.499Z,37.31
